sensor_id;sensor_type;location;lat;lon;timestamp;temperature;humidity
71237;DHT22;58984;51.960;5.582;2023-02-07T00:00:16;12.30;52.20
71237;DHT22;58984;51.960;5.582;2023-02-07T00:02:45;12.30;52.20
71237;DHT22;58984;51.960;5.582;2023-02-07T00:05:12;12.30;52.20
71237;DHT22;58984;51.960;5.582;2023-02-07T00:07:38;12.30;52.20
71237;DHT22;58984;51.960;5.582;2023-02-07T00:10:05;12.30;52.20
71237;DHT22;58984;51.960;5.582;2023-02-07T00:12:31;12.30;52.40
71237;DHT22;58984;51.960;5.582;2023-02-07T00:14:57;12.30;52.40
71237;DHT22;58984;51.960;5.582;2023-02-07T00:17:22;12.30;52.30
71237;DHT22;58984;51.960;5.582;2023-02-07T00:19:48;12.30;52.30
71237;DHT22;58984;51.960;5.582;2023-02-07T00:22:13;12.30;52.30
71237;DHT22;58984;51.960;5.582;2023-02-07T00:24:39;12.30;52.20
71237;DHT22;58984;51.960;5.582;2023-02-07T00:27:05;12.20;52.20
71237;DHT22;58984;51.960;5.582;2023-02-07T00:29:30;12.20;52.20
71237;DHT22;58984;51.960;5.582;2023-02-07T00:31:57;12.20;52.30
71237;DHT22;58984;51.960;5.582;2023-02-07T00:34:22;12.20;52.40
71237;DHT22;58984;51.960;5.582;2023-02-07T00:36:48;12.20;52.40
71237;DHT22;58984;51.960;5.582;2023-02-07T00:39:16;12.10;52.30
71237;DHT22;58984;51.960;5.582;2023-02-07T00:41:42;12.20;52.40
71237;DHT22;58984;51.960;5.582;2023-02-07T00:44:09;12.10;52.40
71237;DHT22;58984;51.960;5.582;2023-02-07T00:46:35;12.10;52.40
71237;DHT22;58984;51.960;5.582;2023-02-07T00:49:01;12.10;52.40
71237;DHT22;58984;51.960;5.582;2023-02-07T00:51:26;12.10;52.40
71237;DHT22;58984;51.960;5.582;2023-02-07T00:53:53;12.10;52.40
71237;DHT22;58984;51.960;5.582;2023-02-07T00:56:21;12.00;52.30
71237;DHT22;58984;51.960;5.582;2023-02-07T00:58:47;12.10;52.50
71237;DHT22;58984;51.960;5.582;2023-02-07T01:01:13;12.10;52.50
71237;DHT22;58984;51.960;5.582;2023-02-07T01:03:39;12.10;52.60
71237;DHT22;58984;51.960;5.582;2023-02-07T01:06:05;12.00;52.50
71237;DHT22;58984;51.960;5.582;2023-02-07T01:08:31;12.00;52.50
71237;DHT22;58984;51.960;5.582;2023-02-07T01:11:01;12.00;52.50
71237;DHT22;58984;51.960;5.582;2023-02-07T01:13:27;12.00;52.50
71237;DHT22;58984;51.960;5.582;2023-02-07T01:15:53;12.00;52.50
71237;DHT22;58984;51.960;5.582;2023-02-07T01:18:18;11.90;52.50
71237;DHT22;58984;51.960;5.582;2023-02-07T01:20:44;12.00;52.50
71237;DHT22;58984;51.960;5.582;2023-02-07T01:23:11;12.00;52.60
71237;DHT22;58984;51.960;5.582;2023-02-07T01:25:37;11.90;52.50
71237;DHT22;58984;51.960;5.582;2023-02-07T01:28:04;11.90;52.50
71237;DHT22;58984;51.960;5.582;2023-02-07T01:30:30;11.90;52.60
71237;DHT22;58984;51.960;5.582;2023-02-07T01:32:55;11.90;52.60
71237;DHT22;58984;51.960;5.582;2023-02-07T01:35:22;11.90;52.50
71237;DHT22;58984;51.960;5.582;2023-02-07T01:37:47;11.80;52.40
71237;DHT22;58984;51.960;5.582;2023-02-07T01:40:13;11.80;52.40
71237;DHT22;58984;51.960;5.582;2023-02-07T01:42:39;11.80;52.40
71237;DHT22;58984;51.960;5.582;2023-02-07T01:45:26;11.80;52.40
71237;DHT22;58984;51.960;5.582;2023-02-07T01:47:53;11.80;52.40
71237;DHT22;58984;51.960;5.582;2023-02-07T01:50:20;11.80;52.40
71237;DHT22;58984;51.960;5.582;2023-02-07T01:52:47;11.70;52.30
71237;DHT22;58984;51.960;5.582;2023-02-07T01:55:17;11.70;52.30
71237;DHT22;58984;51.960;5.582;2023-02-07T01:57:43;11.70;52.30
71237;DHT22;58984;51.960;5.582;2023-02-07T02:00:11;11.70;52.20
71237;DHT22;58984;51.960;5.582;2023-02-07T02:02:38;11.70;52.20
71237;DHT22;58984;51.960;5.582;2023-02-07T02:05:04;11.70;52.20
71237;DHT22;58984;51.960;5.582;2023-02-07T02:07:31;11.70;52.20
71237;DHT22;58984;51.960;5.582;2023-02-07T02:09:59;11.70;52.30
71237;DHT22;58984;51.960;5.582;2023-02-07T02:12:30;11.70;52.30
71237;DHT22;58984;51.960;5.582;2023-02-07T02:26:19;11.50;52.10
71237;DHT22;58984;51.960;5.582;2023-02-07T02:33:55;11.50;52.10
71237;DHT22;58984;51.960;5.582;2023-02-07T02:36:44;11.50;52.10
71237;DHT22;58984;51.960;5.582;2023-02-07T02:39:22;11.40;52.10
71237;DHT22;58984;51.960;5.582;2023-02-07T02:42:00;11.40;52.00
71237;DHT22;58984;51.960;5.582;2023-02-07T02:44:35;11.40;52.00
71237;DHT22;58984;51.960;5.582;2023-02-07T02:47:03;11.40;52.00
71237;DHT22;58984;51.960;5.582;2023-02-07T02:49:30;11.40;52.10
71237;DHT22;58984;51.960;5.582;2023-02-07T02:51:57;11.40;52.10
71237;DHT22;58984;51.960;5.582;2023-02-07T02:54:32;11.40;52.10
71237;DHT22;58984;51.960;5.582;2023-02-07T03:03:08;11.30;52.00
71237;DHT22;58984;51.960;5.582;2023-02-07T03:11:14;11.20;51.90
71237;DHT22;58984;51.960;5.582;2023-02-07T03:16:48;11.20;51.90
71237;DHT22;58984;51.960;5.582;2023-02-07T03:19:24;11.20;51.90
71237;DHT22;58984;51.960;5.582;2023-02-07T03:24:22;11.10;51.90
71237;DHT22;58984;51.960;5.582;2023-02-07T03:26:50;11.20;51.90
71237;DHT22;58984;51.960;5.582;2023-02-07T03:29:18;11.20;51.90
71237;DHT22;58984;51.960;5.582;2023-02-07T03:31:47;11.20;52.00
71237;DHT22;58984;51.960;5.582;2023-02-07T03:34:17;11.10;51.90
71237;DHT22;58984;51.960;5.582;2023-02-07T03:36:57;11.10;51.80
71237;DHT22;58984;51.960;5.582;2023-02-07T03:39:25;11.10;51.90
71237;DHT22;58984;51.960;5.582;2023-02-07T03:41:55;11.10;51.80
71237;DHT22;58984;51.960;5.582;2023-02-07T03:44:23;11.10;51.80
71237;DHT22;58984;51.960;5.582;2023-02-07T03:46:51;11.10;51.70
71237;DHT22;58984;51.960;5.582;2023-02-07T03:49:17;11.10;51.70
71237;DHT22;58984;51.960;5.582;2023-02-07T03:51:43;11.10;51.70
71237;DHT22;58984;51.960;5.582;2023-02-07T03:54:09;11.10;51.70
71237;DHT22;58984;51.960;5.582;2023-02-07T03:56:35;11.00;51.50
71237;DHT22;58984;51.960;5.582;2023-02-07T03:59:01;11.00;51.40
71237;DHT22;58984;51.960;5.582;2023-02-07T04:01:27;11.00;51.40
71237;DHT22;58984;51.960;5.582;2023-02-07T04:03:53;11.00;51.30
71237;DHT22;58984;51.960;5.582;2023-02-07T04:06:19;11.00;51.30
71237;DHT22;58984;51.960;5.582;2023-02-07T04:08:44;10.90;51.20
71237;DHT22;58984;51.960;5.582;2023-02-07T04:11:10;10.90;51.10
71237;DHT22;58984;51.960;5.582;2023-02-07T04:13:36;10.90;51.20
71237;DHT22;58984;51.960;5.582;2023-02-07T04:16:04;10.90;51.20
71237;DHT22;58984;51.960;5.582;2023-02-07T04:18:29;10.90;51.20
71237;DHT22;58984;51.960;5.582;2023-02-07T04:21:03;10.80;51.20
71237;DHT22;58984;51.960;5.582;2023-02-07T04:23:29;10.80;51.20
71237;DHT22;58984;51.960;5.582;2023-02-07T04:25:55;10.80;51.20
71237;DHT22;58984;51.960;5.582;2023-02-07T04:28:21;10.80;51.20
71237;DHT22;58984;51.960;5.582;2023-02-07T04:30:46;10.80;51.20
71237;DHT22;58984;51.960;5.582;2023-02-07T04:33:12;10.80;51.20
71237;DHT22;58984;51.960;5.582;2023-02-07T04:35:38;10.70;51.20
71237;DHT22;58984;51.960;5.582;2023-02-07T04:38:03;10.80;51.30
71237;DHT22;58984;51.960;5.582;2023-02-07T04:40:29;10.70;51.20
71237;DHT22;58984;51.960;5.582;2023-02-07T04:42:55;10.70;51.10
71237;DHT22;58984;51.960;5.582;2023-02-07T04:45:21;10.70;51.20
71237;DHT22;58984;51.960;5.582;2023-02-07T04:47:46;10.70;51.20
71237;DHT22;58984;51.960;5.582;2023-02-07T04:50:12;10.70;51.20
71237;DHT22;58984;51.960;5.582;2023-02-07T04:52:38;10.70;51.20
71237;DHT22;58984;51.960;5.582;2023-02-07T04:55:06;10.60;51.10
71237;DHT22;58984;51.960;5.582;2023-02-07T04:57:32;10.60;51.20
71237;DHT22;58984;51.960;5.582;2023-02-07T04:59:57;10.60;51.10
71237;DHT22;58984;51.960;5.582;2023-02-07T05:02:23;10.60;51.10
71237;DHT22;58984;51.960;5.582;2023-02-07T05:04:48;10.60;51.00
71237;DHT22;58984;51.960;5.582;2023-02-07T05:07:14;10.60;51.10
71237;DHT22;58984;51.960;5.582;2023-02-07T05:09:39;10.50;51.00
71237;DHT22;58984;51.960;5.582;2023-02-07T05:12:05;10.50;51.00
71237;DHT22;58984;51.960;5.582;2023-02-07T05:14:31;10.50;51.00
71237;DHT22;58984;51.960;5.582;2023-02-07T05:16:56;10.50;51.10
71237;DHT22;58984;51.960;5.582;2023-02-07T05:19:22;10.50;51.00
71237;DHT22;58984;51.960;5.582;2023-02-07T05:21:47;10.40;51.00
71237;DHT22;58984;51.960;5.582;2023-02-07T05:24:13;10.50;51.00
71237;DHT22;58984;51.960;5.582;2023-02-07T05:26:38;10.50;51.10
71237;DHT22;58984;51.960;5.582;2023-02-07T05:29:04;10.40;50.90
71237;DHT22;58984;51.960;5.582;2023-02-07T05:31:30;10.40;50.90
71237;DHT22;58984;51.960;5.582;2023-02-07T05:34:14;10.40;51.00
71237;DHT22;58984;51.960;5.582;2023-02-07T05:36:39;10.40;51.00
71237;DHT22;58984;51.960;5.582;2023-02-07T05:39:05;10.40;51.00
71237;DHT22;58984;51.960;5.582;2023-02-07T05:41:30;10.30;50.90
71237;DHT22;58984;51.960;5.582;2023-02-07T05:43:56;10.30;50.80
71237;DHT22;58984;51.960;5.582;2023-02-07T05:46:22;10.30;50.80
71237;DHT22;58984;51.960;5.582;2023-02-07T05:48:47;10.30;50.80
71237;DHT22;58984;51.960;5.582;2023-02-07T05:51:13;10.30;50.70
71237;DHT22;58984;51.960;5.582;2023-02-07T05:53:38;10.30;50.70
71237;DHT22;58984;51.960;5.582;2023-02-07T05:56:04;10.30;50.70
71237;DHT22;58984;51.960;5.582;2023-02-07T05:58:30;10.30;50.70
71237;DHT22;58984;51.960;5.582;2023-02-07T06:00:56;10.30;50.70
71237;DHT22;58984;51.960;5.582;2023-02-07T06:03:22;10.20;50.60
71237;DHT22;58984;51.960;5.582;2023-02-07T06:05:47;10.20;50.60
71237;DHT22;58984;51.960;5.582;2023-02-07T06:08:13;10.20;50.60
71237;DHT22;58984;51.960;5.582;2023-02-07T06:10:39;10.20;50.70
71237;DHT22;58984;51.960;5.582;2023-02-07T06:13:04;10.20;50.70
71237;DHT22;58984;51.960;5.582;2023-02-07T06:15:30;10.20;50.70
71237;DHT22;58984;51.960;5.582;2023-02-07T06:17:55;10.10;50.60
71237;DHT22;58984;51.960;5.582;2023-02-07T06:20:21;10.10;50.60
71237;DHT22;58984;51.960;5.582;2023-02-07T06:22:47;10.10;50.70
71237;DHT22;58984;51.960;5.582;2023-02-07T06:25:13;10.10;50.70
71237;DHT22;58984;51.960;5.582;2023-02-07T06:27:39;10.10;50.70
71237;DHT22;58984;51.960;5.582;2023-02-07T06:30:07;10.10;50.70
71237;DHT22;58984;51.960;5.582;2023-02-07T06:32:33;10.10;50.70
71237;DHT22;58984;51.960;5.582;2023-02-07T06:34:59;10.00;50.50
71237;DHT22;58984;51.960;5.582;2023-02-07T06:37:24;10.00;50.60
71237;DHT22;58984;51.960;5.582;2023-02-07T06:39:50;10.00;50.60
71237;DHT22;58984;51.960;5.582;2023-02-07T06:42:15;10.00;50.60
71237;DHT22;58984;51.960;5.582;2023-02-07T06:44:41;10.00;50.60
71237;DHT22;58984;51.960;5.582;2023-02-07T06:47:07;10.00;50.50
71237;DHT22;58984;51.960;5.582;2023-02-07T06:49:32;9.90;51.40
71237;DHT22;58984;51.960;5.582;2023-02-07T06:51:58;9.90;51.40
71237;DHT22;58984;51.960;5.582;2023-02-07T06:54:23;9.90;51.40
71237;DHT22;58984;51.960;5.582;2023-02-07T06:56:49;9.90;51.40
71237;DHT22;58984;51.960;5.582;2023-02-07T06:59:15;9.90;51.50
71237;DHT22;58984;51.960;5.582;2023-02-07T07:01:41;9.90;51.40
71237;DHT22;58984;51.960;5.582;2023-02-07T07:04:06;9.90;51.50
71237;DHT22;58984;51.960;5.582;2023-02-07T07:06:32;9.90;51.50
71237;DHT22;58984;51.960;5.582;2023-02-07T07:08:58;9.80;51.40
71237;DHT22;58984;51.960;5.582;2023-02-07T07:11:23;9.80;51.40
71237;DHT22;58984;51.960;5.582;2023-02-07T07:13:49;9.80;51.30
71237;DHT22;58984;51.960;5.582;2023-02-07T07:16:14;9.80;51.30
71237;DHT22;58984;51.960;5.582;2023-02-07T07:18:40;9.80;51.30
71237;DHT22;58984;51.960;5.582;2023-02-07T07:21:06;9.80;51.20
71237;DHT22;58984;51.960;5.582;2023-02-07T07:23:32;9.70;51.10
71237;DHT22;58984;51.960;5.582;2023-02-07T07:25:58;9.70;51.10
71237;DHT22;58984;51.960;5.582;2023-02-07T07:28:23;9.70;51.10
71237;DHT22;58984;51.960;5.582;2023-02-07T07:30:49;9.70;51.20
71237;DHT22;58984;51.960;5.582;2023-02-07T07:33:14;9.70;51.10
71237;DHT22;58984;51.960;5.582;2023-02-07T07:35:40;9.70;51.10
71237;DHT22;58984;51.960;5.582;2023-02-07T07:38:05;9.70;51.10
71237;DHT22;58984;51.960;5.582;2023-02-07T07:40:31;9.60;51.00
71237;DHT22;58984;51.960;5.582;2023-02-07T07:42:57;9.70;51.10
71237;DHT22;58984;51.960;5.582;2023-02-07T07:45:22;9.60;51.00
71237;DHT22;58984;51.960;5.582;2023-02-07T07:47:48;9.60;51.10
71237;DHT22;58984;51.960;5.582;2023-02-07T07:50:14;9.60;51.00
71237;DHT22;58984;51.960;5.582;2023-02-07T07:52:39;9.60;51.00
71237;DHT22;58984;51.960;5.582;2023-02-07T07:55:06;9.60;51.00
71237;DHT22;58984;51.960;5.582;2023-02-07T07:57:32;9.60;51.10
71237;DHT22;58984;51.960;5.582;2023-02-07T07:59:58;9.50;51.00
71237;DHT22;58984;51.960;5.582;2023-02-07T08:02:23;9.60;51.20
71237;DHT22;58984;51.960;5.582;2023-02-07T08:04:49;9.60;51.20
71237;DHT22;58984;51.960;5.582;2023-02-07T08:07:15;9.50;51.20
71237;DHT22;58984;51.960;5.582;2023-02-07T08:09:41;9.50;51.20
71237;DHT22;58984;51.960;5.582;2023-02-07T08:12:07;9.50;51.20
71237;DHT22;58984;51.960;5.582;2023-02-07T08:14:33;9.50;51.20
71237;DHT22;58984;51.960;5.582;2023-02-07T08:16:58;9.50;51.30
71237;DHT22;58984;51.960;5.582;2023-02-07T08:19:24;9.50;51.30
71237;DHT22;58984;51.960;5.582;2023-02-07T08:21:49;9.50;51.30
71237;DHT22;58984;51.960;5.582;2023-02-07T08:24:15;9.50;51.30
71237;DHT22;58984;51.960;5.582;2023-02-07T08:26:40;9.50;51.30
71237;DHT22;58984;51.960;5.582;2023-02-07T08:29:06;9.50;51.30
71237;DHT22;58984;51.960;5.582;2023-02-07T08:31:32;9.50;51.40
71237;DHT22;58984;51.960;5.582;2023-02-07T08:33:57;9.50;51.40
71237;DHT22;58984;51.960;5.582;2023-02-07T08:36:23;9.40;51.30
71237;DHT22;58984;51.960;5.582;2023-02-07T08:38:50;9.50;51.40
71237;DHT22;58984;51.960;5.582;2023-02-07T08:41:15;9.40;51.30
71237;DHT22;58984;51.960;5.582;2023-02-07T08:43:41;9.40;51.40
71237;DHT22;58984;51.960;5.582;2023-02-07T08:46:07;9.40;51.40
71237;DHT22;58984;51.960;5.582;2023-02-07T08:48:32;9.40;51.50
71237;DHT22;58984;51.960;5.582;2023-02-07T08:51:06;9.40;51.50
71237;DHT22;58984;51.960;5.582;2023-02-07T08:53:32;9.40;51.50
71237;DHT22;58984;51.960;5.582;2023-02-07T08:55:58;9.50;51.70
71237;DHT22;58984;51.960;5.582;2023-02-07T08:58:24;9.40;51.60
71237;DHT22;58984;51.960;5.582;2023-02-07T09:00:49;9.50;51.70
71237;DHT22;58984;51.960;5.582;2023-02-07T09:03:15;9.50;51.70
71237;DHT22;58984;51.960;5.582;2023-02-07T09:05:41;9.50;51.70
71237;DHT22;58984;51.960;5.582;2023-02-07T09:08:06;9.40;51.60
71237;DHT22;58984;51.960;5.582;2023-02-07T09:10:32;9.40;51.60
71237;DHT22;58984;51.960;5.582;2023-02-07T09:12:57;9.50;51.80
71237;DHT22;58984;51.960;5.582;2023-02-07T09:15:23;9.50;51.70
71237;DHT22;58984;51.960;5.582;2023-02-07T09:17:49;9.50;51.70
71237;DHT22;58984;51.960;5.582;2023-02-07T09:20:14;9.50;51.70
71237;DHT22;58984;51.960;5.582;2023-02-07T09:22:40;9.60;51.80
71237;DHT22;58984;51.960;5.582;2023-02-07T09:25:24;9.60;51.90
71237;DHT22;58984;51.960;5.582;2023-02-07T09:27:50;9.50;51.80
71237;DHT22;58984;51.960;5.582;2023-02-07T09:30:16;9.50;51.90
71237;DHT22;58984;51.960;5.582;2023-02-07T09:32:42;9.60;51.90
71237;DHT22;58984;51.960;5.582;2023-02-07T09:35:08;9.60;52.00
71237;DHT22;58984;51.960;5.582;2023-02-07T09:37:34;9.60;52.00
71237;DHT22;58984;51.960;5.582;2023-02-07T09:40:00;9.70;52.30
71237;DHT22;58984;51.960;5.582;2023-02-07T09:42:31;9.70;52.30
71237;DHT22;58984;51.960;5.582;2023-02-07T09:45:07;9.70;52.30
71237;DHT22;58984;51.960;5.582;2023-02-07T09:47:37;9.80;52.40
71237;DHT22;58984;51.960;5.582;2023-02-07T09:50:12;9.80;52.30
71237;DHT22;58984;51.960;5.582;2023-02-07T09:52:54;9.90;52.70
71237;DHT22;58984;51.960;5.582;2023-02-07T09:55:27;9.90;52.90
71237;DHT22;58984;51.960;5.582;2023-02-07T09:58:13;10.00;52.10
71237;DHT22;58984;51.960;5.582;2023-02-07T10:00:42;10.00;52.10
71237;DHT22;58984;51.960;5.582;2023-02-07T10:03:21;10.10;52.10
71237;DHT22;58984;51.960;5.582;2023-02-07T10:05:56;10.20;51.90
71237;DHT22;58984;51.960;5.582;2023-02-07T10:08:23;10.20;51.80
71237;DHT22;58984;51.960;5.582;2023-02-07T10:10:56;10.30;51.90
71237;DHT22;58984;51.960;5.582;2023-02-07T10:13:48;10.40;52.00
71237;DHT22;58984;51.960;5.582;2023-02-07T10:28:08;10.90;52.10
71237;DHT22;58984;51.960;5.582;2023-02-07T10:30:42;10.90;52.30
71237;DHT22;58984;51.960;5.582;2023-02-07T10:35:41;11.20;52.70
71237;DHT22;58984;51.960;5.582;2023-02-07T10:40:59;11.30;52.70
71237;DHT22;58984;51.960;5.582;2023-02-07T10:43:28;11.40;52.80
71237;DHT22;58984;51.960;5.582;2023-02-07T10:46:13;11.50;52.90
71237;DHT22;58984;51.960;5.582;2023-02-07T10:48:39;11.60;53.60
71237;DHT22;58984;51.960;5.582;2023-02-07T10:53:46;11.80;53.00
71237;DHT22;58984;51.960;5.582;2023-02-07T10:56:16;11.90;53.20
71237;DHT22;58984;51.960;5.582;2023-02-07T10:58:42;11.90;53.20
71237;DHT22;58984;51.960;5.582;2023-02-07T11:01:20;12.10;53.60
71237;DHT22;58984;51.960;5.582;2023-02-07T11:03:46;12.10;53.80
71237;DHT22;58984;51.960;5.582;2023-02-07T11:06:14;12.30;54.00
71237;DHT22;58984;51.960;5.582;2023-02-07T11:08:41;12.30;54.10
71237;DHT22;58984;51.960;5.582;2023-02-07T11:11:36;12.40;54.00
71237;DHT22;58984;51.960;5.582;2023-02-07T11:14:07;12.50;53.70
71237;DHT22;58984;51.960;5.582;2023-02-07T11:16:33;12.70;53.90
71237;DHT22;58984;51.960;5.582;2023-02-07T11:19:06;12.80;53.80
71237;DHT22;58984;51.960;5.582;2023-02-07T11:24:05;13.00;54.30
71237;DHT22;58984;51.960;5.582;2023-02-07T11:26:34;13.10;53.80
71237;DHT22;58984;51.960;5.582;2023-02-07T11:29:14;13.10;53.60
71237;DHT22;58984;51.960;5.582;2023-02-07T11:31:42;13.20;53.50
71237;DHT22;58984;51.960;5.582;2023-02-07T11:37:10;13.40;54.20
71237;DHT22;58984;51.960;5.582;2023-02-07T11:39:42;13.50;54.50
71237;DHT22;58984;51.960;5.582;2023-02-07T11:42:14;13.60;54.60
71237;DHT22;58984;51.960;5.582;2023-02-07T11:44:43;13.70;54.70
71237;DHT22;58984;51.960;5.582;2023-02-07T11:47:20;13.80;54.80
71237;DHT22;58984;51.960;5.582;2023-02-07T11:49:57;13.90;54.90
71237;DHT22;58984;51.960;5.582;2023-02-07T11:52:25;14.00;54.90
71237;DHT22;58984;51.960;5.582;2023-02-07T11:54:55;14.10;54.90
71237;DHT22;58984;51.960;5.582;2023-02-07T11:57:22;14.20;55.10
71237;DHT22;58984;51.960;5.582;2023-02-07T12:02:25;14.40;55.20
71237;DHT22;58984;51.960;5.582;2023-02-07T12:04:51;14.50;55.30
71237;DHT22;58984;51.960;5.582;2023-02-07T12:07:28;14.60;55.50
71237;DHT22;58984;51.960;5.582;2023-02-07T12:09:59;14.70;55.60
71237;DHT22;58984;51.960;5.582;2023-02-07T12:12:34;14.80;55.60
71237;DHT22;58984;51.960;5.582;2023-02-07T12:17:40;15.00;55.30
71237;DHT22;58984;51.960;5.582;2023-02-07T12:20:15;15.00;55.40
71237;DHT22;58984;51.960;5.582;2023-02-07T12:22:51;15.10;55.30
71237;DHT22;58984;51.960;5.582;2023-02-07T12:25:22;15.20;55.00
71237;DHT22;58984;51.960;5.582;2023-02-07T12:27:50;15.40;55.30
71237;DHT22;58984;51.960;5.582;2023-02-07T12:30:39;15.50;55.20
71237;DHT22;58984;51.960;5.582;2023-02-07T12:33:14;15.50;55.20
71237;DHT22;58984;51.960;5.582;2023-02-07T12:36:11;15.60;55.20
71237;DHT22;58984;51.960;5.582;2023-02-07T12:41:47;15.80;54.70
71237;DHT22;58984;51.960;5.582;2023-02-07T12:44:22;15.90;54.60
71237;DHT22;58984;51.960;5.582;2023-02-07T13:00:12;16.50;54.50
71237;DHT22;58984;51.960;5.582;2023-02-07T13:08:24;16.60;54.30
71237;DHT22;58984;51.960;5.582;2023-02-07T13:13:27;16.70;53.80
71237;DHT22;58984;51.960;5.582;2023-02-07T13:16:03;16.80;53.80
71237;DHT22;58984;51.960;5.582;2023-02-07T13:21:26;16.90;53.40
71237;DHT22;58984;51.960;5.582;2023-02-07T13:24:00;16.90;53.20
71237;DHT22;58984;51.960;5.582;2023-02-07T13:26:27;17.00;53.20
71237;DHT22;58984;51.960;5.582;2023-02-07T13:29:02;17.10;53.30
71237;DHT22;58984;51.960;5.582;2023-02-07T13:31:39;17.10;53.10
71237;DHT22;58984;51.960;5.582;2023-02-07T13:34:14;17.10;53.10
71237;DHT22;58984;51.960;5.582;2023-02-07T13:36:43;17.10;53.30
71237;DHT22;58984;51.960;5.582;2023-02-07T13:42:13;17.20;53.60
71237;DHT22;58984;51.960;5.582;2023-02-07T13:44:47;17.30;53.40
71237;DHT22;58984;51.960;5.582;2023-02-07T13:52:58;17.40;52.90
71237;DHT22;58984;51.960;5.582;2023-02-07T13:55:37;17.40;52.90
71237;DHT22;58984;51.960;5.582;2023-02-07T13:58:04;17.40;52.80
71237;DHT22;58984;51.960;5.582;2023-02-07T14:01:14;17.50;52.70
71237;DHT22;58984;51.960;5.582;2023-02-07T14:03:59;17.50;52.50
71237;DHT22;58984;51.960;5.582;2023-02-07T14:06:26;17.60;52.60
71237;DHT22;58984;51.960;5.582;2023-02-07T14:09:02;17.60;52.70
71237;DHT22;58984;51.960;5.582;2023-02-07T14:17:01;17.70;52.40
71237;DHT22;58984;51.960;5.582;2023-02-07T14:27:40;17.70;52.40
71237;DHT22;58984;51.960;5.582;2023-02-07T14:30:15;17.70;52.50
71237;DHT22;58984;51.960;5.582;2023-02-07T14:32:44;17.70;52.40
71237;DHT22;58984;51.960;5.582;2023-02-07T14:38:35;17.70;52.10
71237;DHT22;58984;51.960;5.582;2023-02-07T14:45:37;17.80;52.10
71237;DHT22;58984;51.960;5.582;2023-02-07T14:48:06;17.80;52.00
71237;DHT22;58984;51.960;5.582;2023-02-07T14:50:51;17.80;52.10
71237;DHT22;58984;51.960;5.582;2023-02-07T14:53:18;17.80;51.90
71237;DHT22;58984;51.960;5.582;2023-02-07T14:55:50;17.70;51.50
71237;DHT22;58984;51.960;5.582;2023-02-07T14:58:39;17.70;51.50
71237;DHT22;58984;51.960;5.582;2023-02-07T15:01:13;17.60;51.40
71237;DHT22;58984;51.960;5.582;2023-02-07T15:03:41;17.60;51.30
71237;DHT22;58984;51.960;5.582;2023-02-07T15:06:18;17.70;51.20
71237;DHT22;58984;51.960;5.582;2023-02-07T15:08:58;17.50;50.80
71237;DHT22;58984;51.960;5.582;2023-02-07T15:11:26;17.40;50.50
71237;DHT22;58984;51.960;5.582;2023-02-07T15:13:55;17.40;50.20
71237;DHT22;58984;51.960;5.582;2023-02-07T15:16:24;17.30;50.10
71237;DHT22;58984;51.960;5.582;2023-02-07T15:19:04;17.20;49.60
71237;DHT22;58984;51.960;5.582;2023-02-07T15:21:34;17.20;49.40
71237;DHT22;58984;51.960;5.582;2023-02-07T15:24:05;17.10;49.40
71237;DHT22;58984;51.960;5.582;2023-02-07T15:26:32;17.00;49.30
71237;DHT22;58984;51.960;5.582;2023-02-07T15:29:02;16.90;49.00
71237;DHT22;58984;51.960;5.582;2023-02-07T15:31:28;16.90;48.90
71237;DHT22;58984;51.960;5.582;2023-02-07T15:33:57;16.80;48.90
71237;DHT22;58984;51.960;5.582;2023-02-07T15:36:33;16.70;48.80
71237;DHT22;58984;51.960;5.582;2023-02-07T15:39:01;16.60;48.50
71237;DHT22;58984;51.960;5.582;2023-02-07T15:41:28;16.50;48.20
71237;DHT22;58984;51.960;5.582;2023-02-07T15:44:05;16.40;48.10
71237;DHT22;58984;51.960;5.582;2023-02-07T15:47:04;16.30;48.00
71237;DHT22;58984;51.960;5.582;2023-02-07T15:49:39;16.20;47.90
71237;DHT22;58984;51.960;5.582;2023-02-07T15:52:23;16.20;47.70
71237;DHT22;58984;51.960;5.582;2023-02-07T15:54:51;16.00;47.60
71237;DHT22;58984;51.960;5.582;2023-02-07T15:57:35;16.00;47.70
71237;DHT22;58984;51.960;5.582;2023-02-07T16:00:08;15.80;47.50
71237;DHT22;58984;51.960;5.582;2023-02-07T16:02:41;15.80;47.50
71237;DHT22;58984;51.960;5.582;2023-02-07T16:05:19;15.80;47.50
71237;DHT22;58984;51.960;5.582;2023-02-07T16:07:46;15.70;47.40
71237;DHT22;58984;51.960;5.582;2023-02-07T16:12:52;15.50;47.20
71237;DHT22;58984;51.960;5.582;2023-02-07T16:18:00;15.40;47.00
71237;DHT22;58984;51.960;5.582;2023-02-07T16:20:28;15.40;47.10
71237;DHT22;58984;51.960;5.582;2023-02-07T16:22:56;15.40;47.10
71237;DHT22;58984;51.960;5.582;2023-02-07T16:25:32;15.30;47.10
71237;DHT22;58984;51.960;5.582;2023-02-07T16:27:59;15.20;47.00
71237;DHT22;58984;51.960;5.582;2023-02-07T16:30:34;15.20;46.90
71237;DHT22;58984;51.960;5.582;2023-02-07T16:33:07;15.10;46.80
71237;DHT22;58984;51.960;5.582;2023-02-07T16:35:35;15.00;46.50
71237;DHT22;58984;51.960;5.582;2023-02-07T16:38:01;15.00;46.60
71237;DHT22;58984;51.960;5.582;2023-02-07T16:40:27;15.00;46.50
71237;DHT22;58984;51.960;5.582;2023-02-07T16:42:53;14.90;46.30
71237;DHT22;58984;51.960;5.582;2023-02-07T16:45:25;14.80;46.40
71237;DHT22;58984;51.960;5.582;2023-02-07T16:47:51;14.80;47.00
71237;DHT22;58984;51.960;5.582;2023-02-07T16:50:19;14.80;46.50
71237;DHT22;58984;51.960;5.582;2023-02-07T16:52:47;14.70;46.30
71237;DHT22;58984;51.960;5.582;2023-02-07T16:55:14;14.70;46.40
71237;DHT22;58984;51.960;5.582;2023-02-07T16:57:41;14.60;46.30
71237;DHT22;58984;51.960;5.582;2023-02-07T17:00:08;14.60;46.30
71237;DHT22;58984;51.960;5.582;2023-02-07T17:02:33;14.50;46.40
71237;DHT22;58984;51.960;5.582;2023-02-07T17:04:59;14.50;46.40
71237;DHT22;58984;51.960;5.582;2023-02-07T17:07:27;14.40;46.30
71237;DHT22;58984;51.960;5.582;2023-02-07T17:09:52;14.40;46.30
71237;DHT22;58984;51.960;5.582;2023-02-07T17:12:18;14.40;46.30
71237;DHT22;58984;51.960;5.582;2023-02-07T17:14:43;14.30;46.30
71237;DHT22;58984;51.960;5.582;2023-02-07T17:17:13;14.30;46.30
71237;DHT22;58984;51.960;5.582;2023-02-07T17:19:38;14.20;46.20
71237;DHT22;58984;51.960;5.582;2023-02-07T17:22:04;14.20;46.20
71237;DHT22;58984;51.960;5.582;2023-02-07T17:24:29;14.10;46.10
71237;DHT22;58984;51.960;5.582;2023-02-07T17:26:56;14.10;46.10
71237;DHT22;58984;51.960;5.582;2023-02-07T17:29:22;14.00;46.00
71237;DHT22;58984;51.960;5.582;2023-02-07T17:31:48;14.00;46.00
71237;DHT22;58984;51.960;5.582;2023-02-07T17:34:14;14.00;46.00
71237;DHT22;58984;51.960;5.582;2023-02-07T17:36:44;13.90;45.90
71237;DHT22;58984;51.960;5.582;2023-02-07T17:39:12;13.80;45.90
71237;DHT22;58984;51.960;5.582;2023-02-07T17:41:37;13.80;45.90
71237;DHT22;58984;51.960;5.582;2023-02-07T17:44:04;13.80;45.90
71237;DHT22;58984;51.960;5.582;2023-02-07T17:46:29;13.70;45.80
71237;DHT22;58984;51.960;5.582;2023-02-07T17:48:55;13.70;45.80
71237;DHT22;58984;51.960;5.582;2023-02-07T17:51:23;13.70;45.80